Brainerd Lakes Regional Airport


Codes: KBRD/BRD
Name: Brainerd Lakes Regional Airport
City: Brainerd
Country: United States
Elevation: 1232 ft.
Website:
Wikipedia:

Photos at Brainerd Lakes Regional Airport


   Photos courtesy of SpottingLog. You can add your own sightings and photos by signing up for a free trial today.



No photos found.

Weather at Brainerd Lakes Regional Airport


Time (UTC)DescriptionTempratureWindCloud coverageVisibilityPressureHumidity
17-Jun-2024 06:00Clear Sky21°C4 mph, NW0%10000m1010hPa43%
17-Jun-2024 09:00Few Clouds18°C2 mph, NW24%10000m1010hPa55%
17-Jun-2024 12:00Broken Clouds16°C2 mph, SW55%10000m1011hPa61%
17-Jun-2024 15:00Light Rain15°C2 mph, SE100%10000m1011hPa73%
17-Jun-2024 18:00Light Rain16°C4 mph, SE100%10000m1011hPa75%
17-Jun-2024 21:00Overcast Clouds16°C7 mph, SE100%10000m1010hPa75%
18-Jun-2024 00:00Light Rain16°C7 mph, SE100%10000m1008hPa88%
18-Jun-2024 03:00Light Rain14°C9 mph, E100%10000m1006hPa98%
18-Jun-2024 06:00Light Rain16°C11 mph, E100%91m1003hPa99%
18-Jun-2024 09:00Moderate Rain20°C7 mph, SE100%6772m1000hPa99%
18-Jun-2024 12:00Moderate Rain22°C13 mph, S99%6553m1000hPa97%
18-Jun-2024 15:00Moderate Rain22°C16 mph, S98%10000m1000hPa94%
18-Jun-2024 18:00Light Rain24°C16 mph, S98%10000m1000hPa91%
18-Jun-2024 21:00Light Rain26°C16 mph, SW57%10000m1000hPa90%
19-Jun-2024 00:00Light Rain22°C16 mph, W62%10000m1002hPa95%
19-Jun-2024 03:00Light Rain13°C13 mph, W100%4613m1008hPa97%
19-Jun-2024 06:00Overcast Clouds12°C9 mph, W100%10000m1014hPa95%
19-Jun-2024 09:00Overcast Clouds12°C9 mph, NW100%10000m1018hPa88%
19-Jun-2024 12:00Overcast Clouds10°C9 mph, NW88%10000m1022hPa82%
19-Jun-2024 15:00Overcast Clouds15°C9 mph, NW99%10000m1023hPa59%
19-Jun-2024 18:00Overcast Clouds19°C7 mph, NW96%10000m1025hPa48%
19-Jun-2024 21:00Overcast Clouds21°C4 mph, NW100%10000m1025hPa45%
20-Jun-2024 00:00Overcast Clouds20°C2 mph, NE86%10000m1024hPa60%
20-Jun-2024 03:00Scattered Clouds15°C2 mph, E40%10000m1026hPa74%
20-Jun-2024 06:00Broken Clouds15°C2 mph, E66%10000m1028hPa70%
20-Jun-2024 09:00Overcast Clouds14°C4 mph, NE100%10000m1028hPa59%
20-Jun-2024 12:00Overcast Clouds13°C4 mph, E100%10000m1028hPa71%
20-Jun-2024 15:00Light Rain15°C9 mph, SE99%10000m1028hPa77%
20-Jun-2024 18:00Moderate Rain13°C4 mph, E100%10000m1029hPa97%
20-Jun-2024 21:00Light Rain13°C7 mph, E100%10000m1026hPa97%
21-Jun-2024 00:00Light Rain13°C7 mph, E100%4576m1024hPa99%
21-Jun-2024 03:00Overcast Clouds13°C9 mph, E100%266m1023hPa99%
21-Jun-2024 06:00Light Rain13°C7 mph, E100%115m1022hPa99%
21-Jun-2024 09:00Moderate Rain15°C2 mph, E100%87m1021hPa99%
21-Jun-2024 12:00Moderate Rain16°C4 mph, NE100%105m1020hPa99%
21-Jun-2024 15:00Light Rain17°C4 mph, E100%83m1019hPa100%
21-Jun-2024 18:00Light Rain20°C4 mph, SE100%9074m1017hPa99%
21-Jun-2024 21:00Light Rain22°C4 mph, SE100%7936m1014hPa94%
22-Jun-2024 00:00Moderate Rain20°C4 mph, E100%3064m1012hPa96%
22-Jun-2024 03:00Light Rain18°C9 mph, SE100%746m1011hPa99%